KTTN/TTN METAR and TAF weather

Enter ICAO airport designator
Station Type Date Time Source
KTTN METAR 2021/01/22 06:53 UTC NOAA

KTTN 220653Z AUTO 23004KT 10SM SCT080 02/M04 A2964 RMK AO2 SLP030 T00171044


Station Type Date Time Source
KTTN Decoded METAR 2021/01/22 06:53 UTC NOAA

TRENTON MERCER COUNTY AIRPORT , NJ, United States (KTTN) 40-17N 074-49W 59M
Jan 22, 2021 - 01:53 AM EST / 2021.01.22 0653 UTC
Wind: from the SW (230 degrees) at 5 MPH (4 KT):0
Visibility: 10 mile(s):0
Sky conditions: partly cloudy
Temperature: 35.1 F (1.7 C)
Dew Point: 24.1 F (-4.4 C)
Relative Humidity: 63%
Pressure (altimeter): 29.64 in. Hg (1003 hPa)
ob: KTTN 220653Z AUTO 23004KT 10SM SCT080 02/M04 A2964 RMK AO2 SLP030 T00171044
cycle: 7

Station Type Date Time Source
KTTN TAF 2021/01/22 06:34 UTC NOAA

TAF KTTN 220532Z 2206/2306 26005KT P6SM BKN060
FM221200 27005KT P6SM FEW250
FM221600 28010G18KT P6SM SCT045
FM221800 29012G21KT P6SM BKN045
FM222200 29009KT P6SM SCT060
FM230100 30006KT P6SM SCT045

Example: see airport list